Time;durP1;ratioP1;P1;durP2;ratioP2;P2;SDS_P1;SDS_P2;PMS_P1;PMS_P2;Temp;Humidity;BMP_temperature;BMP_pressure;BME280_temperature;BME280_humidity;BME280_pressure;Samples;Min_cycle;Max_cycle;Signal;HPM_P1;HPM_P2
2021/09/25 00:00:30;;;;;;;7.53;6.55;;;17.90;99.90;;;;;;5062383;28;20025;-77
2021/09/25 00:03:01;;;;;;;8.80;6.78;;;18.00;99.90;;;;;;5053685;28;20025;-78
2021/09/25 00:05:29;;;;;;;7.20;6.20;;;18.00;99.90;;;;;;5071922;28;20661;-78
2021/09/25 00:07:56;;;;;;;5.70;5.20;;;18.10;99.90;;;;;;5063296;28;20071;-78
2021/09/25 00:10:23;;;;;;;6.20;5.60;;;18.10;99.90;;;;;;5073649;28;20032;-77
2021/09/25 00:12:50;;;;;;;7.63;5.63;;;18.20;99.90;;;;;;5069623;28;20031;-77
2021/09/25 00:15:17;;;;;;;6.47;5.88;;;18.30;99.90;;;;;;5068950;28;20028;-77
2021/09/25 00:17:43;;;;;;;6.10;5.65;;;18.30;99.90;;;;;;5067592;28;20036;-77
2021/09/25 00:20:09;;;;;;;6.45;5.72;;;18.30;99.90;;;;;;5068653;28;20031;-77
2021/09/25 00:22:36;;;;;;;7.07;5.38;;;18.30;99.90;;;;;;5071893;28;20499;-77
2021/09/25 00:25:02;;;;;;;5.60;5.07;;;18.30;99.90;;;;;;5067285;28;20103;-78
2021/09/25 00:27:29;;;;;;;6.18;5.55;;;18.30;99.90;;;;;;5068570;28;20027;-78
2021/09/25 00:29:55;;;;;;;6.80;6.25;;;18.40;99.90;;;;;;5064387;28;20547;-79
2021/09/25 00:32:21;;;;;;;6.05;5.55;;;18.50;99.90;;;;;;5059146;28;20043;-78
2021/09/25 00:34:47;;;;;;;6.75;6.07;;;18.50;99.90;;;;;;5067982;28;20021;-77
2021/09/25 00:37:13;;;;;;;5.38;4.95;;;18.50;99.90;;;;;;5055601;28;20024;-78
2021/09/25 00:39:39;;;;;;;10.75;4.90;;;18.60;99.90;;;;;;5064557;28;20079;-77
2021/09/25 00:42:05;;;;;;;5.97;5.43;;;18.60;99.90;;;;;;5055032;28;20039;-79
2021/09/25 00:44:31;;;;;;;5.07;4.68;;;18.60;99.90;;;;;;5071657;28;20032;-77
2021/09/25 00:46:58;;;;;;;5.72;5.20;;;18.60;99.90;;;;;;5071433;28;20173;-78
2021/09/25 00:49:25;;;;;;;5.43;5.03;;;18.60;99.90;;;;;;5063861;28;20025;-78
2021/09/25 00:51:51;;;;;;;6.85;4.85;;;18.60;99.90;;;;;;5062207;28;20024;-77
2021/09/25 00:54:18;;;;;;;8.85;6.03;;;18.60;99.90;;;;;;5050527;28;20024;-77
2021/09/25 00:56:47;;;;;;;5.75;5.25;;;18.60;99.90;;;;;;5079274;28;20028;-78
2021/09/25 00:59:14;;;;;;;9.20;5.30;;;18.60;99.90;;;;;;5064441;28;20031;-78
2021/09/25 01:01:41;;;;;;;5.65;4.93;;;18.60;99.90;;;;;;5052803;28;20029;-78
2021/09/25 01:04:08;;;;;;;5.40;4.95;;;18.60;99.90;;;;;;5065781;28;20036;-78
2021/09/25 01:06:34;;;;;;;7.50;5.03;;;18.60;99.90;;;;;;5060069;28;20035;-77
2021/09/25 01:09:03;;;;;;;5.80;5.30;;;18.60;99.90;;;;;;5050740;28;20021;-77
2021/09/25 01:11:29;;;;;;;5.85;4.30;;;18.60;99.90;;;;;;5062958;28;20025;-77
2021/09/25 01:13:56;;;;;;;9.40;5.07;;;18.50;99.90;;;;;;5066429;28;20028;-77
2021/09/25 01:16:23;;;;;;;6.72;5.32;;;18.50;99.90;;;;;;5071114;28;20106;-78
2021/09/25 01:18:49;;;;;;;5.13;4.72;;;18.50;99.90;;;;;;5064451;28;20024;-77
2021/09/25 01:21:16;;;;;;;5.88;5.07;;;18.50;99.90;;;;;;5062329;28;20103;-78
2021/09/25 01:23:43;;;;;;;4.93;4.53;;;18.40;99.90;;;;;;5057949;28;20048;-77
2021/09/25 01:26:09;;;;;;;7.57;5.43;;;18.50;99.90;;;;;;5067689;28;20599;-77
2021/09/25 01:28:38;;;;;;;8.93;4.53;;;18.50;99.90;;;;;;5078015;28;20029;-77
2021/09/25 01:31:06;;;;;;;4.95;4.55;;;18.50;99.90;;;;;;5079503;28;20050;-77
2021/09/25 01:33:38;;;;;;;6.10;5.57;;;18.50;99.90;;;;;;5070795;28;20048;-79
2021/09/25 01:36:09;;;;;;;6.68;5.53;;;18.50;99.90;;;;;;5073752;28;20020;-78
2021/09/25 01:38:35;;;;;;;6.55;5.03;;;18.50;99.90;;;;;;5076812;28;20027;-78
2021/09/25 01:41:02;;;;;;;6.10;5.28;;;18.50;99.90;;;;;;5058271;28;20023;-78
2021/09/25 01:43:29;;;;;;;6.03;5.50;;;18.60;99.90;;;;;;5064413;28;20053;-77
2021/09/25 01:45:55;;;;;;;6.75;5.70;;;18.60;99.90;;;;;;5080140;28;20386;-78
2021/09/25 01:48:22;;;;;;;6.07;4.65;;;18.60;99.90;;;;;;5074314;28;20027;-78
2021/09/25 01:50:50;;;;;;;7.43;5.07;;;18.70;99.90;;;;;;5071039;28;20029;-78
2021/09/25 01:53:17;;;;;;;4.68;4.28;;;18.70;99.90;;;;;;5063805;28;20509;-78
2021/09/25 01:55:43;;;;;;;7.72;6.15;;;18.70;99.90;;;;;;5076823;28;20482;-77
2021/09/25 01:58:09;;;;;;;5.78;5.20;;;18.70;99.90;;;;;;5078629;28;20021;-80
2021/09/25 02:00:35;;;;;;;7.15;4.75;;;18.60;99.90;;;;;;5071520;28;20020;-78
2021/09/25 02:03:04;;;;;;;6.65;4.50;;;18.60;99.90;;;;;;5068375;28;20030;-77
2021/09/25 02:05:30;;;;;;;5.43;4.82;;;18.60;99.90;;;;;;5075460;28;20030;-78
2021/09/25 02:07:56;;;;;;;6.60;6.00;;;18.60;99.90;;;;;;5081062;28;20436;-78
2021/09/25 02:10:22;;;;;;;5.85;5.35;;;18.60;99.90;;;;;;5063881;28;20037;-78
2021/09/25 02:12:48;;;;;;;5.90;5.43;;;18.60;99.90;;;;;;5075796;28;20029;-77
2021/09/25 02:15:14;;;;;;;10.63;5.07;;;18.50;99.90;;;;;;5079767;28;20093;-78
2021/09/25 02:17:41;;;;;;;5.85;5.35;;;18.50;99.90;;;;;;5077387;28;20139;-78
2021/09/25 02:20:09;;;;;;;5.68;4.78;;;18.60;99.90;;;;;;5082135;28;20028;-77
2021/09/25 02:22:35;;;;;;;5.25;4.88;;;18.60;99.90;;;;;;5082213;28;20020;-79
2021/09/25 02:25:03;;;;;;;6.75;4.57;;;18.60;99.90;;;;;;5081848;28;20055;-78
2021/09/25 02:27:29;;;;;;;6.70;5.95;;;18.60;99.90;;;;;;5071317;28;20025;-78
2021/09/25 02:29:55;;;;;;;4.72;4.32;;;18.50;99.90;;;;;;5064750;28;20107;-78
2021/09/25 02:32:21;;;;;;;6.57;4.82;;;18.50;99.90;;;;;;5092225;28;20065;-78
2021/09/25 02:34:47;;;;;;;7.82;5.00;;;18.50;99.90;;;;;;5058336;28;20031;-78
2021/09/25 02:37:13;;;;;;;5.45;5.05;;;18.50;99.90;;;;;;5073650;28;20025;-79
2021/09/25 02:39:39;;;;;;;5.85;4.85;;;18.40;99.90;;;;;;5094373;28;20110;-78
2021/09/25 02:42:05;;;;;;;8.68;5.35;;;18.50;99.90;;;;;;5074312;28;20024;-78
2021/09/25 02:44:31;;;;;;;7.05;5.57;;;18.50;99.90;;;;;;5052687;28;20088;-77
2021/09/25 02:46:57;;;;;;;6.45;5.53;;;18.40;99.90;;;;;;5089635;28;20044;-78
2021/09/25 02:49:23;;;;;;;6.20;5.47;;;18.40;99.90;;;;;;5076451;28;20028;-78
2021/09/25 02:51:50;;;;;;;5.43;4.93;;;18.40;99.90;;;;;;5096598;28;20084;-78
2021/09/25 02:54:16;;;;;;;8.20;5.03;;;18.40;99.90;;;;;;5078876;28;20479;-78
2021/09/25 02:56:42;;;;;;;6.10;5.20;;;18.40;99.90;;;;;;5075702;28;20036;-78
2021/09/25 02:59:08;;;;;;;6.95;5.10;;;18.50;99.90;;;;;;5086943;28;20076;-78
2021/09/25 03:01:36;;;;;;;5.53;5.00;;;18.60;99.90;;;;;;5069215;28;20032;-78
2021/09/25 03:04:02;;;;;;;6.38;5.60;;;18.60;99.90;;;;;;5076847;28;20020;-78
2021/09/25 03:06:29;;;;;;;6.60;5.25;;;18.60;99.90;;;;;;5084208;28;20111;-78
2021/09/25 03:08:55;;;;;;;6.90;5.63;;;18.50;99.90;;;;;;5077470;28;20432;-78
2021/09/25 03:11:20;;;;;;;5.53;4.75;;;18.60;99.90;;;;;;5077307;28;20020;-78
2021/09/25 03:13:46;;;;;;;5.53;5.13;;;18.60;99.90;;;;;;5070778;28;20040;-78
2021/09/25 03:16:13;;;;;;;5.10;4.68;;;18.50;99.90;;;;;;5086065;28;20490;-80
2021/09/25 03:18:39;;;;;;;6.22;5.63;;;18.60;99.90;;;;;;5083546;28;20261;-78
2021/09/25 03:21:05;;;;;;;6.25;5.65;;;18.50;99.90;;;;;;5076478;28;20503;-80
2021/09/25 03:23:32;;;;;;;5.57;5.07;;;18.50;99.90;;;;;;5082671;28;20049;-78
2021/09/25 03:25:58;;;;;;;6.43;5.88;;;18.40;99.90;;;;;;5057149;28;20029;-78
2021/09/25 03:28:24;;;;;;;10.65;4.85;;;18.40;99.90;;;;;;5082444;28;20517;-78
2021/09/25 03:30:49;;;;;;;6.18;5.57;;;18.40;99.90;;;;;;5080861;28;20106;-78
2021/09/25 03:33:15;;;;;;;6.55;5.60;;;18.40;99.90;;;;;;5084008;28;20032;-78
2021/09/25 03:35:46;;;;;;;6.90;5.25;;;18.40;99.90;;;;;;5088593;28;20455;-78
2021/09/25 03:38:21;;;;;;;6.90;6.07;;;18.50;99.90;;;;;;5070445;28;20424;-78
2021/09/25 03:40:49;;;;;;;6.28;5.65;;;18.40;99.90;;;;;;5074852;28;20104;-78
2021/09/25 03:43:16;;;;;;;11.35;5.57;;;18.50;99.90;;;;;;5081557;28;20023;-78
2021/09/25 03:45:42;;;;;;;7.30;4.97;;;18.50;99.90;;;;;;5060208;28;20056;-78
2021/09/25 03:48:08;;;;;;;6.53;5.93;;;18.60;99.90;;;;;;5063489;28;20040;-78
2021/09/25 03:50:35;;;;;;;8.73;5.47;;;18.50;99.90;;;;;;5078382;28;20028;-78
2021/09/25 03:53:02;;;;;;;7.70;6.93;;;18.50;99.90;;;;;;5083417;28;20024;-78
2021/09/25 03:55:28;;;;;;;6.20;5.60;;;18.50;99.90;;;;;;5079677;28;20042;-78
2021/09/25 03:57:56;;;;;;;8.23;6.90;;;18.60;99.90;;;;;;5074986;28;20028;-78
2021/09/25 04:00:23;;;;;;;8.15;5.72;;;18.60;99.90;;;;;;5076365;28;20045;-78
2021/09/25 04:02:50;;;;;;;5.55;4.85;;;18.60;99.90;;;;;;5072823;28;20025;-78
2021/09/25 04:05:20;;;;;;;6.72;5.88;;;18.60;99.90;;;;;;5080368;28;20688;-78
2021/09/25 04:07:47;;;;;;;10.05;6.65;;;18.50;99.90;;;;;;5083759;28;20088;-78
2021/09/25 04:10:14;;;;;;;6.65;6.15;;;18.60;99.90;;;;;;5071727;28;20398;-78
2021/09/25 04:12:40;;;;;;;5.70;5.22;;;18.60;99.90;;;;;;5088340;28;20036;-78
2021/09/25 04:15:08;;;;;;;7.90;5.28;;;18.60;99.90;;;;;;5079904;28;20622;-78
2021/09/25 04:17:35;;;;;;;8.88;5.55;;;18.50;99.90;;;;;;5070135;28;20048;-78
2021/09/25 04:20:04;;;;;;;10.30;5.25;;;18.50;99.90;;;;;;5070574;28;20031;-78
2021/09/25 04:22:30;;;;;;;6.93;6.22;;;18.40;99.90;;;;;;5063246;28;20027;-77
2021/09/25 04:24:56;;;;;;;9.93;6.00;;;18.40;99.90;;;;;;5071236;28;20474;-78
2021/09/25 04:27:22;;;;;;;5.90;5.40;;;18.30;99.90;;;;;;5069572;28;20436;-78
2021/09/25 04:29:48;;;;;;;6.28;5.35;;;18.30;99.90;;;;;;5060496;28;20122;-78
2021/09/25 04:32:15;;;;;;;6.55;5.55;;;18.40;99.90;;;;;;5079780;28;20021;-78
2021/09/25 04:34:41;;;;;;;11.77;6.15;;;18.50;99.90;;;;;;5077517;28;20021;-78
2021/09/25 04:37:07;;;;;;;6.97;5.88;;;18.40;99.90;;;;;;5066240;28;20036;-78
2021/09/25 04:39:33;;;;;;;9.13;6.32;;;18.50;99.90;;;;;;5076119;28;20075;-78
2021/09/25 04:41:59;;;;;;;9.40;6.85;;;18.50;99.90;;;;;;5082696;28;20112;-78
2021/09/25 04:44:25;;;;;;;9.45;7.50;;;18.60;99.90;;;;;;5068113;28;20028;-78
2021/09/25 04:46:51;;;;;;;9.88;6.68;;;18.60;99.90;;;;;;5083706;28;20036;-78
2021/09/25 04:49:17;;;;;;;9.52;6.20;;;18.60;99.90;;;;;;5068798;28;20033;-78
2021/09/25 04:51:43;;;;;;;6.47;5.88;;;18.60;99.90;;;;;;5053780;28;20033;-78
2021/09/25 04:54:09;;;;;;;6.85;6.03;;;18.50;99.90;;;;;;5060740;28;20024;-78
2021/09/25 04:56:35;;;;;;;7.82;5.93;;;18.50;99.90;;;;;;5067116;28;20493;-78
2021/09/25 04:59:01;;;;;;;6.07;5.47;;;18.40;99.90;;;;;;5071419;28;20040;-78
2021/09/25 05:01:27;;;;;;;7.85;5.53;;;18.30;99.90;;;;;;5071508;28;20028;-78
2021/09/25 05:03:53;;;;;;;5.95;5.45;;;18.30;99.90;;;;;;5065349;28;20031;-78
2021/09/25 05:06:19;;;;;;;7.82;6.18;;;18.40;99.90;;;;;;5092873;28;20028;-78
2021/09/25 05:08:45;;;;;;;7.55;6.80;;;18.30;99.90;;;;;;5072035;28;20096;-78
2021/09/25 05:11:11;;;;;;;7.68;5.82;;;18.40;99.90;;;;;;5088748;28;20023;-78
2021/09/25 05:13:37;;;;;;;7.47;6.78;;;18.50;99.90;;;;;;5067560;28;20036;-78
2021/09/25 05:16:03;;;;;;;7.20;6.50;;;18.50;99.90;;;;;;5093453;28;20035;-78
2021/09/25 05:18:29;;;;;;;8.35;6.50;;;18.50;99.90;;;;;;5084764;28;20051;-78
2021/09/25 05:20:55;;;;;;;6.78;5.97;;;18.50;99.90;;;;;;5089272;28;20046;-78
2021/09/25 05:23:21;;;;;;;6.60;5.90;;;18.60;99.90;;;;;;5080871;28;20033;-78
2021/09/25 05:25:48;;;;;;;6.90;6.03;;;18.70;99.90;;;;;;5077785;28;20024;-78
2021/09/25 05:28:14;;;;;;;11.45;6.47;;;18.70;99.90;;;;;;5078614;28;20032;-78
2021/09/25 05:30:40;;;;;;;8.20;6.47;;;18.70;99.90;;;;;;5093729;28;20031;-78
2021/09/25 05:33:09;;;;;;;7.15;6.43;;;18.70;99.90;;;;;;5071484;28;21560;-78
2021/09/25 05:35:35;;;;;;;6.50;5.90;;;18.80;99.90;;;;;;5083353;28;20101;-78
2021/09/25 05:38:02;;;;;;;8.95;6.03;;;18.80;99.90;;;;;;5084554;28;20046;-78
2021/09/25 05:40:28;;;;;;;8.68;6.35;;;18.90;99.90;;;;;;5084503;28;20051;-78
2021/09/25 05:42:54;;;;;;;9.55;6.50;;;18.80;99.90;;;;;;5091150;28;20039;-78
2021/09/25 05:45:20;;;;;;;6.28;5.70;;;18.90;99.90;;;;;;5059431;28;20016;-78
2021/09/25 05:47:46;;;;;;;8.85;6.85;;;18.90;99.90;;;;;;5085199;28;20161;-78
2021/09/25 05:50:13;;;;;;;8.55;5.88;;;18.80;99.90;;;;;;5068079;28;20033;-78
2021/09/25 05:52:40;;;;;;;8.38;6.90;;;18.90;99.90;;;;;;5066249;28;20031;-78
2021/09/25 05:55:08;;;;;;;11.93;8.35;;;18.90;99.90;;;;;;5052047;28;20033;-78
2021/09/25 05:57:34;;;;;;;7.97;7.25;;;19.00;99.90;;;;;;5061677;28;20032;-78
2021/09/25 06:00:00;;;;;;;8.10;6.68;;;19.10;99.90;;;;;;5070453;28;20108;-78
2021/09/25 06:02:26;;;;;;;11.63;5.65;;;19.10;99.90;;;;;;5075602;28;20048;-78
2021/09/25 06:04:52;;;;;;;7.97;5.38;;;19.10;99.90;;;;;;5073153;28;20023;-78
2021/09/25 06:07:19;;;;;;;7.65;6.30;;;19.20;99.90;;;;;;5074683;28;20044;-78
2021/09/25 06:09:45;;;;;;;7.20;6.50;;;19.20;99.90;;;;;;5076236;28;20027;-78
2021/09/25 06:12:11;;;;;;;9.77;5.22;;;19.20;99.90;;;;;;5062888;28;20033;-78
2021/09/25 06:14:38;;;;;;;9.05;6.47;;;19.10;99.90;;;;;;5059050;28;20127;-78
2021/09/25 06:17:04;;;;;;;10.23;6.43;;;19.20;99.90;;;;;;5041340;28;20037;-78
2021/09/25 06:19:30;;;;;;;8.93;6.55;;;19.20;99.90;;;;;;5060760;28;20029;-78
2021/09/25 06:21:57;;;;;;;8.88;7.00;;;19.20;99.90;;;;;;5085157;28;20028;-78
2021/09/25 06:24:22;;;;;;;7.93;6.82;;;19.20;99.90;;;;;;5061908;28;20029;-78
2021/09/25 06:26:49;;;;;;;8.98;7.10;;;19.30;99.90;;;;;;5079738;28;20100;-78
2021/09/25 06:29:15;;;;;;;7.32;6.57;;;19.30;99.90;;;;;;5076897;28;20085;-78
2021/09/25 06:31:41;;;;;;;8.50;7.05;;;19.40;99.90;;;;;;5085172;28;20028;-78
2021/09/25 06:34:07;;;;;;;7.78;6.53;;;19.40;99.90;;;;;;5077902;28;20021;-78
2021/09/25 06:36:40;;;;;;;19.48;7.18;;;19.50;99.90;;;;;;5057789;28;20024;-78
2021/09/25 06:39:06;;;;;;;10.95;6.95;;;19.70;99.90;;;;;;5039978;28;20021;-78
2021/09/25 06:41:32;;;;;;;7.70;6.65;;;19.90;99.90;;;;;;5071417;28;20020;-78
2021/09/25 06:43:58;;;;;;;8.82;7.38;;;20.10;99.90;;;;;;5077338;28;20093;-78
2021/09/25 06:46:23;;;;;;;8.45;6.93;;;20.30;99.90;;;;;;5078164;28;20029;-78
2021/09/25 06:48:50;;;;;;;11.00;9.95;;;20.40;99.90;;;;;;5060153;28;20024;-78
2021/09/25 06:51:17;;;;;;;20.13;14.98;;;20.40;99.90;;;;;;5070729;28;20112;-78
2021/09/25 06:53:43;;;;;;;13.60;8.88;;;20.50;99.90;;;;;;5058659;28;20060;-78
2021/09/25 06:56:09;;;;;;;26.33;19.15;;;20.70;99.90;;;;;;5059710;28;20111;-78
2021/09/25 06:58:35;;;;;;;18.23;15.32;;;20.80;99.90;;;;;;5078213;28;20635;-78
2021/09/25 07:01:01;;;;;;;11.13;8.35;;;20.80;99.90;;;;;;5074734;28;20067;-78
2021/09/25 07:03:27;;;;;;;16.15;12.43;;;20.90;99.90;;;;;;5060630;28;20052;-78
2021/09/25 07:05:53;;;;;;;20.60;10.68;;;20.90;99.90;;;;;;5062366;28;20024;-78
2021/09/25 07:08:19;;;;;;;18.48;11.27;;;21.00;99.90;;;;;;5061072;28;20109;-78
2021/09/25 07:10:46;;;;;;;17.02;10.77;;;21.10;99.90;;;;;;5077412;28;20061;-78
2021/09/25 07:13:12;;;;;;;12.55;11.35;;;21.20;99.90;;;;;;5073073;28;20021;-78
2021/09/25 07:15:40;;;;;;;12.30;9.02;;;21.30;99.90;;;;;;5074672;28;20025;-78
2021/09/25 07:18:06;;;;;;;10.40;8.13;;;21.50;99.90;;;;;;5061480;28;20280;-78
2021/09/25 07:20:32;;;;;;;13.63;8.98;;;21.50;99.90;;;;;;5061459;28;20036;-78
2021/09/25 07:22:58;;;;;;;11.05;7.88;;;21.50;99.90;;;;;;5077503;28;20021;-78
2021/09/25 07:25:24;;;;;;;14.60;7.00;;;21.60;99.90;;;;;;5074560;28;20389;-78
2021/09/25 07:27:51;;;;;;;14.32;8.35;;;21.60;99.90;;;;;;5095740;28;20024;-78
2021/09/25 07:30:17;;;;;;;8.75;7.82;;;21.60;99.90;;;;;;5064111;28;20082;-78
2021/09/25 07:32:43;;;;;;;11.02;8.77;;;21.50;99.90;;;;;;5076165;28;20107;-78
2021/09/25 07:35:11;;;;;;;13.30;7.13;;;21.50;99.90;;;;;;5076257;28;20028;-78
2021/09/25 07:37:37;;;;;;;8.65;7.78;;;21.70;99.90;;;;;;5072008;28;20394;-78
2021/09/25 07:40:05;;;;;;;12.57;7.70;;;21.80;99.90;;;;;;5058885;28;20033;-78
2021/09/25 07:42:31;;;;;;;10.00;8.63;;;21.90;99.90;;;;;;5070814;28;20024;-78
2021/09/25 07:44:58;;;;;;;11.95;10.25;;;22.00;99.90;;;;;;5056435;28;20083;-78
2021/09/25 07:47:24;;;;;;;7.72;6.97;;;22.10;99.90;;;;;;5058434;28;20031;-79
2021/09/25 07:50:06;;;;;;;12.45;6.97;;;22.30;99.90;;;;;;5057060;28;20033;-78
2021/09/25 07:52:39;;;;;;;11.23;7.53;;;22.60;99.90;;;;;;5062220;28;20447;-78
2021/09/25 07:55:09;;;;;;;8.63;7.28;;;22.40;99.90;;;;;;5041068;28;20552;-78
2021/09/25 07:57:39;;;;;;;10.07;8.23;;;22.50;99.90;;;;;;5074580;28;20568;-78
2021/09/25 08:00:33;;;;;;;7.80;6.28;;;22.60;99.90;;;;;;5076411;28;20523;-78
2021/09/25 08:06:26;;;;;;;7.03;6.00;;;22.80;99.90;;;;;;5075418;28;20672;-78
2021/09/25 08:08:52;;;;;;;13.07;7.47;;;22.90;99.90;;;;;;5057615;28;20426;-78
2021/09/25 08:15:40;;;;;;;15.18;8.20;;;23.20;99.90;;;;;;5031009;28;20060;-79
2021/09/25 08:22:20;;;;;;;;;;;;;;;;;;;;;
2021/09/25 08:24:49;;;;;;;7.03;6.35;;;23.50;99.90;;;;;;4943803;28;20112;-78
2021/09/25 08:27:17;;;;;;;7.13;6.43;;;23.60;99.90;;;;;;4987856;28;20022;-78
2021/09/25 08:33:17;;;;;;;9.35;7.28;;;23.60;99.90;;;;;;5043114;28;20568;-78
2021/09/25 08:35:49;;;;;;;8.27;6.25;;;23.80;99.90;;;;;;5075902;28;20051;-78
2021/09/25 08:38:36;;;;;;;9.00;6.93;;;23.60;99.90;;;;;;5083544;28;20113;-78
2021/09/25 08:41:35;;;;;;;7.72;7.13;;;23.40;99.90;;;;;;5075800;28;20037;-78
2021/09/25 08:47:37;;;;;;;10.95;6.28;;;23.50;99.90;;;;;;5079798;28;20050;-78
2021/09/25 08:53:56;;;;;;;7.88;7.18;;;23.50;99.90;;;;;;5041811;28;20044;-79
2021/09/25 08:59:52;;;;;;;;;;;;;;;;;;;;;
2021/09/25 09:02:43;;;;;;;17.75;7.38;;;24.00;99.90;;;;;;5087209;28;20045;-78
2021/09/25 09:05:20;;;;;;;16.27;7.22;;;24.10;99.90;;;;;;5078893;28;20051;-78
2021/09/25 09:08:27;;;;;;;11.18;7.20;;;24.20;99.90;;;;;;5071561;28;20078;-78
2021/09/25 09:11:20;;;;;;;13.38;7.88;;;24.50;99.90;;;;;;5080789;28;20027;-78
2021/09/25 09:14:07;;;;;;;8.48;7.55;;;24.80;99.90;;;;;;5078237;28;20111;-78
2021/09/25 09:44:10;;;;;;;9.45;8.45;;;23.40;99.90;;;;;;4953092;28;20437;-76
2021/09/25 09:53:20;;;;;;;9.63;7.20;;;22.80;99.90;;;;;;4978226;28;20029;-75
2021/09/25 09:56:10;;;;;;;16.10;7.68;;;22.70;99.90;;;;;;5026605;28;20033;-76
2021/09/25 09:58:36;;;;;;;10.27;8.45;;;22.60;99.90;;;;;;5084283;28;20107;-77
2021/09/25 10:01:02;;;;;;;9.50;7.95;;;22.60;99.90;;;;;;5092882;28;20024;-76
2021/09/25 10:03:40;;;;;;;10.18;8.18;;;22.80;99.90;;;;;;5092958;28;20103;-77
2021/09/25 10:06:10;;;;;;;14.25;7.80;;;23.00;99.90;;;;;;5093450;28;20031;-74
2021/09/25 10:08:42;;;;;;;9.30;8.40;;;23.40;99.90;;;;;;5093038;28;20044;-77
2021/09/25 10:14:34;;;;;;;7.97;7.15;;;23.60;99.90;;;;;;5047765;28;20089;-75
2021/09/25 10:17:08;;;;;;;8.52;7.72;;;23.50;99.90;;;;;;5072275;28;20028;-78
2021/09/25 10:19:39;;;;;;;12.95;11.38;;;23.60;99.90;;;;;;5072775;28;20071;-74
2021/09/25 10:22:05;;;;;;;11.50;10.35;;;23.50;99.90;;;;;;5076352;28;20056;-75
2021/09/25 10:34:32;;;;;;;14.95;10.30;;;23.10;99.90;;;;;;4979938;28;20045;-74
2021/09/25 10:40:18;;;;;;;12.27;9.77;;;23.20;99.90;;;;;;4978191;28;20037;-75
2021/09/25 10:42:49;;;;;;;10.30;9.35;;;23.20;99.90;;;;;;5016199;28;20045;-75
2021/09/25 10:45:43;;;;;;;14.93;9.30;;;23.20;99.90;;;;;;5056083;28;20092;-76
2021/09/25 10:48:28;;;;;;;11.52;10.43;;;23.20;99.90;;;;;;5055522;28;20028;-75
2021/09/25 10:51:12;;;;;;;14.25;11.77;;;23.10;99.90;;;;;;5056322;28;20051;-80
2021/09/25 10:54:06;;;;;;;12.02;10.80;;;23.10;99.90;;;;;;5088092;28;20035;-78
2021/09/25 10:56:33;;;;;;;15.13;13.00;;;22.90;99.90;;;;;;5081873;28;20028;-78
2021/09/25 11:02:32;;;;;;;11.77;10.68;;;22.70;99.90;;;;;;5029194;28;20044;-77
2021/09/25 11:12:20;;;;;;;16.67;11.80;;;22.70;99.90;;;;;;4961734;28;20552;-76
2021/09/25 11:15:25;;;;;;;11.50;10.57;;;22.80;99.90;;;;;;4962675;28;20511;-74
2021/09/25 11:21:58;;;;;;;13.77;11.93;;;23.00;99.90;;;;;;4941597;29;20640;-75
2021/09/25 11:24:25;;;;;;;11.68;10.27;;;22.90;99.90;;;;;;4939173;28;20027;-75
2021/09/25 11:30:33;;;;;;;11.77;10.57;;;22.60;99.90;;;;;;5055122;28;20088;-77
2021/09/25 11:33:03;;;;;;;12.75;10.35;;;22.70;99.90;;;;;;5054273;28;20017;-77
2021/09/25 11:43:11;;;;;;;11.05;9.70;;;22.90;99.90;;;;;;5046318;28;20070;-75
2021/09/25 11:46:07;;;;;;;11.73;10.02;;;23.00;99.90;;;;;;5075019;28;20451;-75
2021/09/25 11:49:06;;;;;;;14.65;10.10;;;22.90;99.90;;;;;;5049331;28;20072;-74
2021/09/25 11:51:45;;;;;;;10.55;9.50;;;22.90;99.90;;;;;;5061625;28;20077;-75
2021/09/25 11:57:38;;;;;;;19.35;11.02;;;23.00;99.90;;;;;;5043921;28;20086;-75
2021/09/25 12:00:55;;;;;;;17.00;9.90;;;23.10;99.90;;;;;;5075533;28;20040;-77
2021/09/25 12:10:33;;;;;;;9.48;8.55;;;23.30;99.90;;;;;;4974096;28;20539;-78
2021/09/25 12:27:16;;;;;;;13.68;9.98;;;23.10;99.90;;;;;;4915811;29;20043;-75
2021/09/25 12:33:45;;;;;;;;;;;;;;;;;;;;;
2021/09/25 12:36:43;;;;;;;12.15;10.90;;;23.00;99.90;;;;;;5042626;28;20035;-77
2021/09/25 12:40:34;;;;;;;;;;;;;;;;;;;;;
2021/09/25 12:46:26;;;;;;;14.07;9.82;;;23.20;99.90;;;;;;5031612;28;20067;-75
2021/09/25 13:09:26;;;;;;;22.17;10.95;;;23.20;99.90;;;;;;5004601;28;20121;-76
2021/09/25 13:12:18;;;;;;;27.38;10.05;;;23.20;99.90;;;;;;4993120;28;20198;-77
2021/09/25 13:18:39;;;;;;;26.73;11.18;;;23.20;99.90;;;;;;4932634;29;20075;-76
2021/09/25 13:24:43;;;;;;;14.50;9.68;;;23.50;99.90;;;;;;4928871;29;19945;-76
2021/09/25 13:27:40;;;;;;;10.35;9.40;;;23.40;99.90;;;;;;4933293;29;20035;-75
2021/09/25 13:30:50;;;;;;;10.88;9.73;;;23.30;99.90;;;;;;4932127;29;20438;-74
2021/09/25 13:36:08;;;;;;;16.90;11.13;;;23.20;99.90;;;;;;4923445;29;20032;-74
2021/09/25 13:38:46;;;;;;;13.38;10.20;;;23.20;99.90;;;;;;4925287;29;20343;-75
2021/09/25 13:44:49;;;;;;;11.48;10.40;;;23.40;99.90;;;;;;5044566;28;20116;-76
2021/09/25 13:47:42;;;;;;;9.23;8.52;;;23.30;99.90;;;;;;5041884;28;20025;-77
2021/09/25 13:50:20;;;;;;;11.20;8.40;;;23.20;99.90;;;;;;5039899;28;20491;-75
2021/09/25 13:53:26;;;;;;;12.38;10.07;;;23.30;99.90;;;;;;5058994;28;20021;-76
2021/09/25 13:55:53;;;;;;;10.45;9.43;;;23.40;99.90;;;;;;5051164;28;20025;-74
2021/09/25 13:58:47;;;;;;;11.77;10.70;;;23.40;99.90;;;;;;5039801;28;20381;-75
2021/09/25 14:02:02;;;;;;;12.45;10.00;;;23.30;99.90;;;;;;4976981;28;20041;-76
2021/09/25 14:04:05;;;;;;;11.73;10.05;;;23.20;99.90;;;;;;4983592;28;20044;-75
2021/09/25 14:06:58;;;;;;;10.45;9.18;;;23.00;99.90;;;;;;5050280;28;20074;-79
2021/09/25 14:09:24;;;;;;;9.27;8.30;;;23.00;99.90;;;;;;5045860;28;20037;-75
2021/09/25 14:11:55;;;;;;;10.93;9.65;;;23.00;99.90;;;;;;5053587;28;20060;-75
2021/09/25 14:14:23;;;;;;;14.55;10.02;;;23.00;99.90;;;;;;5053944;28;20239;-76
2021/09/25 14:16:49;;;;;;;10.80;9.90;;;23.20;99.90;;;;;;5055382;28;20086;-75
2021/09/25 14:19:38;;;;;;;14.43;9.57;;;23.50;99.90;;;;;;5054079;28;20029;-75
2021/09/25 14:22:18;;;;;;;11.45;9.85;;;23.60;99.90;;;;;;5055519;28;20082;-75
2021/09/25 14:28:34;;;;;;;10.38;9.27;;;23.30;99.90;;;;;;4992205;28;20627;-77
2021/09/25 14:31:10;;;;;;;11.82;9.52;;;23.70;99.90;;;;;;5053559;28;20029;-76
2021/09/25 14:33:37;;;;;;;9.73;8.90;;;23.70;99.90;;;;;;5054517;28;20033;-76
2021/09/25 14:36:20;;;;;;;13.68;9.57;;;23.70;99.90;;;;;;5054598;28;20441;-76
2021/09/25 14:39:05;;;;;;;11.93;8.27;;;23.70;99.90;;;;;;5054803;28;20028;-78
2021/09/25 14:41:33;;;;;;;10.75;9.60;;;23.70;99.90;;;;;;5036745;28;20025;-75
2021/09/25 14:44:00;;;;;;;9.57;8.77;;;23.50;99.90;;;;;;5070046;28;20056;-75
2021/09/25 14:46:29;;;;;;;11.95;9.13;;;23.50;99.90;;;;;;5067716;28;20105;-78
2021/09/25 14:48:55;;;;;;;10.70;9.77;;;23.60;99.90;;;;;;5029065;28;1230820;-76
2021/09/25 14:51:22;;;;;;;10.65;9.70;;;23.50;99.90;;;;;;5083218;28;20486;-76
2021/09/25 14:53:47;;;;;;;11.45;10.27;;;23.50;99.90;;;;;;5081272;28;20078;-75
2021/09/25 14:56:25;;;;;;;15.18;9.55;;;23.40;99.90;;;;;;5067643;28;20095;-75
2021/09/25 14:59:09;;;;;;;12.93;9.68;;;23.50;99.90;;;;;;5065492;28;20505;-76
2021/09/25 15:01:35;;;;;;;10.57;9.57;;;23.60;99.90;;;;;;5076198;28;20029;-78
2021/09/25 15:04:01;;;;;;;15.55;9.88;;;23.50;99.90;;;;;;5068036;28;20025;-77
2021/09/25 15:06:27;;;;;;;9.82;8.60;;;23.50;99.90;;;;;;5076274;28;20397;-77
2021/09/25 15:08:53;;;;;;;11.63;9.15;;;23.50;99.90;;;;;;5067248;28;20039;-75
2021/09/25 15:11:19;;;;;;;10.43;7.95;;;23.60;99.90;;;;;;5073078;28;20456;-77
2021/09/25 15:17:28;;;;;;;10.32;8.90;;;23.40;99.90;;;;;;5063558;28;20039;-77
2021/09/25 15:19:54;;;;;;;9.50;8.60;;;23.30;99.90;;;;;;5058493;28;20116;-76
2021/09/25 15:22:46;;;;;;;10.88;9.85;;;23.30;99.90;;;;;;5076171;28;20097;-76
2021/09/25 15:25:12;;;;;;;10.13;9.23;;;23.20;99.90;;;;;;5084942;28;20040;-76
2021/09/25 15:27:37;;;;;;;10.13;8.18;;;23.20;99.90;;;;;;5090833;28;20031;-78
2021/09/25 15:30:38;;;;;;;9.45;8.57;;;23.10;99.90;;;;;;5085726;28;20027;-76
2021/09/25 15:33:09;;;;;;;10.35;9.45;;;23.20;99.90;;;;;;5075301;28;20036;-78
2021/09/25 15:36:32;;;;;;;9.45;8.65;;;23.10;99.90;;;;;;5089864;28;20033;-78
2021/09/25 15:39:05;;;;;;;9.90;8.98;;;23.20;99.90;;;;;;5060541;28;20053;-77
2021/09/25 15:41:55;;;;;;;10.50;9.23;;;23.20;99.90;;;;;;5079515;28;20573;-76
2021/09/25 15:44:56;;;;;;;10.18;9.18;;;23.20;99.90;;;;;;5063320;28;20032;-76
2021/09/25 15:58:09;;;;;;;11.93;9.77;;;23.00;99.90;;;;;;4987819;28;20256;-80
2021/09/25 16:00:37;;;;;;;9.93;7.95;;;23.00;99.90;;;;;;5018869;28;20116;-77
2021/09/25 16:03:03;;;;;;;9.88;8.98;;;22.90;99.90;;;;;;5075660;28;20035;-77
2021/09/25 16:09:02;;;;;;;10.38;8.23;;;22.90;99.90;;;;;;5055055;28;20062;-78
2021/09/25 16:11:46;;;;;;;9.63;8.57;;;22.80;99.90;;;;;;5060398;28;20048;-77
2021/09/25 16:14:12;;;;;;;12.40;9.10;;;22.70;99.90;;;;;;5070724;28;20032;-76